sensor_id;sensor_type;location;lat;lon;timestamp;P1;durP1;ratioP1;P2;durP2;ratioP2
23181;SDS011;11759;51.282;6.642;2022-08-01T00:00:00;25.90;;;14.85;;
23181;SDS011;11759;51.282;6.642;2022-08-01T00:02:30;30.88;;;14.52;;
23181;SDS011;11759;51.282;6.642;2022-08-01T00:04:57;25.25;;;13.93;;
23181;SDS011;11759;51.282;6.642;2022-08-01T00:07:24;27.27;;;14.57;;
23181;SDS011;11759;51.282;6.642;2022-08-01T00:09:51;26.90;;;15.43;;
23181;SDS011;11759;51.282;6.642;2022-08-01T00:12:17;28.70;;;13.82;;
23181;SDS011;11759;51.282;6.642;2022-08-01T00:14:44;33.67;;;14.75;;
23181;SDS011;11759;51.282;6.642;2022-08-01T00:17:10;28.83;;;14.63;;
23181;SDS011;11759;51.282;6.642;2022-08-01T00:19:37;29.30;;;14.82;;
23181;SDS011;11759;51.282;6.642;2022-08-01T00:22:04;33.10;;;14.48;;
23181;SDS011;11759;51.282;6.642;2022-08-01T00:24:31;26.05;;;14.73;;
23181;SDS011;11759;51.282;6.642;2022-08-01T00:26:57;30.75;;;15.43;;
23181;SDS011;11759;51.282;6.642;2022-08-01T00:29:24;27.67;;;14.60;;
23181;SDS011;11759;51.282;6.642;2022-08-01T00:32:10;31.15;;;14.82;;
23181;SDS011;11759;51.282;6.642;2022-08-01T00:34:37;28.08;;;15.27;;
23181;SDS011;11759;51.282;6.642;2022-08-01T00:37:04;32.25;;;14.88;;
23181;SDS011;11759;51.282;6.642;2022-08-01T00:39:30;28.83;;;14.10;;
23181;SDS011;11759;51.282;6.642;2022-08-01T00:41:59;29.15;;;14.05;;
23181;SDS011;11759;51.282;6.642;2022-08-01T00:44:28;32.50;;;14.50;;
23181;SDS011;11759;51.282;6.642;2022-08-01T00:46:54;29.02;;;14.73;;
23181;SDS011;11759;51.282;6.642;2022-08-01T00:49:21;29.65;;;14.75;;
23181;SDS011;11759;51.282;6.642;2022-08-01T00:51:47;26.85;;;14.15;;
23181;SDS011;11759;51.282;6.642;2022-08-01T00:54:14;25.42;;;13.60;;
23181;SDS011;11759;51.282;6.642;2022-08-01T00:56:42;30.73;;;13.93;;
23181;SDS011;11759;51.282;6.642;2022-08-01T00:59:09;27.58;;;13.77;;
23181;SDS011;11759;51.282;6.642;2022-08-01T01:01:39;29.50;;;14.35;;
23181;SDS011;11759;51.282;6.642;2022-08-01T01:04:11;31.63;;;13.90;;
23181;SDS011;11759;51.282;6.642;2022-08-01T01:06:47;27.48;;;14.35;;
23181;SDS011;11759;51.282;6.642;2022-08-01T01:12:28;30.17;;;13.65;;
23181;SDS011;11759;51.282;6.642;2022-08-01T01:15:07;26.85;;;13.25;;
23181;SDS011;11759;51.282;6.642;2022-08-01T01:17:38;24.25;;;13.80;;
23181;SDS011;11759;51.282;6.642;2022-08-01T01:20:16;26.40;;;13.85;;
23181;SDS011;11759;51.282;6.642;2022-08-01T01:31:02;25.65;;;13.55;;
23181;SDS011;11759;51.282;6.642;2022-08-01T01:33:30;22.90;;;13.05;;
23181;SDS011;11759;51.282;6.642;2022-08-01T01:35:59;29.40;;;13.63;;
23181;SDS011;11759;51.282;6.642;2022-08-01T01:38:33;35.03;;;13.88;;
23181;SDS011;11759;51.282;6.642;2022-08-01T01:41:02;30.38;;;13.50;;
23181;SDS011;11759;51.282;6.642;2022-08-01T01:43:30;34.90;;;14.68;;
23181;SDS011;11759;51.282;6.642;2022-08-01T01:45:59;26.27;;;14.10;;
23181;SDS011;11759;51.282;6.642;2022-08-01T01:48:26;32.28;;;14.40;;
23181;SDS011;11759;51.282;6.642;2022-08-01T01:50:53;27.85;;;13.65;;
23181;SDS011;11759;51.282;6.642;2022-08-01T01:53:22;34.13;;;14.98;;
23181;SDS011;11759;51.282;6.642;2022-08-01T01:55:52;29.02;;;14.45;;
23181;SDS011;11759;51.282;6.642;2022-08-01T01:58:20;35.87;;;15.33;;
23181;SDS011;11759;51.282;6.642;2022-08-01T02:00:49;33.13;;;15.75;;
23181;SDS011;11759;51.282;6.642;2022-08-01T02:03:17;40.58;;;16.85;;
23181;SDS011;11759;51.282;6.642;2022-08-01T02:05:45;33.95;;;15.85;;
23181;SDS011;11759;51.282;6.642;2022-08-01T02:08:14;41.90;;;16.60;;
23181;SDS011;11759;51.282;6.642;2022-08-01T02:10:41;38.22;;;15.48;;
23181;SDS011;11759;51.282;6.642;2022-08-01T02:13:30;38.55;;;16.30;;
23181;SDS011;11759;51.282;6.642;2022-08-01T02:15:58;49.38;;;17.70;;
23181;SDS011;11759;51.282;6.642;2022-08-01T02:18:26;34.55;;;16.63;;
23181;SDS011;11759;51.282;6.642;2022-08-01T02:20:52;46.92;;;17.27;;
23181;SDS011;11759;51.282;6.642;2022-08-01T02:23:21;40.88;;;17.80;;
23181;SDS011;11759;51.282;6.642;2022-08-01T02:25:49;41.97;;;18.50;;
23181;SDS011;11759;51.282;6.642;2022-08-01T02:28:38;45.83;;;17.88;;
23181;SDS011;11759;51.282;6.642;2022-08-01T02:31:15;36.92;;;17.02;;
23181;SDS011;11759;51.282;6.642;2022-08-01T02:38:06;46.97;;;18.00;;
23181;SDS011;11759;51.282;6.642;2022-08-01T02:40:37;34.97;;;19.38;;
23181;SDS011;11759;51.282;6.642;2022-08-01T02:43:04;42.65;;;19.45;;
23181;SDS011;11759;51.282;6.642;2022-08-01T02:45:31;43.42;;;18.38;;
23181;SDS011;11759;51.282;6.642;2022-08-01T02:48:07;41.47;;;18.10;;
23181;SDS011;11759;51.282;6.642;2022-08-01T02:50:36;46.17;;;18.40;;
23181;SDS011;11759;51.282;6.642;2022-08-01T02:53:05;43.15;;;18.20;;
23181;SDS011;11759;51.282;6.642;2022-08-01T02:55:33;43.20;;;18.00;;
23181;SDS011;11759;51.282;6.642;2022-08-01T02:58:00;43.85;;;19.55;;
23181;SDS011;11759;51.282;6.642;2022-08-01T03:00:28;38.80;;;18.23;;
23181;SDS011;11759;51.282;6.642;2022-08-01T03:02:56;46.42;;;18.83;;
23181;SDS011;11759;51.282;6.642;2022-08-01T03:05:24;35.17;;;17.67;;
23181;SDS011;11759;51.282;6.642;2022-08-01T03:07:51;45.90;;;17.95;;
23181;SDS011;11759;51.282;6.642;2022-08-01T03:10:19;37.38;;;17.42;;
23181;SDS011;11759;51.282;6.642;2022-08-01T03:12:46;36.72;;;17.67;;
23181;SDS011;11759;51.282;6.642;2022-08-01T03:15:15;39.25;;;17.75;;
23181;SDS011;11759;51.282;6.642;2022-08-01T03:17:43;40.85;;;18.05;;
23181;SDS011;11759;51.282;6.642;2022-08-01T03:20:11;45.55;;;18.25;;
23181;SDS011;11759;51.282;6.642;2022-08-01T03:22:40;40.67;;;18.65;;
23181;SDS011;11759;51.282;6.642;2022-08-01T03:25:07;38.17;;;18.60;;
23181;SDS011;11759;51.282;6.642;2022-08-01T03:27:34;37.42;;;18.20;;
23181;SDS011;11759;51.282;6.642;2022-08-01T03:30:02;45.95;;;19.48;;
23181;SDS011;11759;51.282;6.642;2022-08-01T03:32:31;38.67;;;19.35;;
23181;SDS011;11759;51.282;6.642;2022-08-01T03:34:57;42.30;;;19.23;;
23181;SDS011;11759;51.282;6.642;2022-08-01T03:37:25;47.97;;;20.58;;
23181;SDS011;11759;51.282;6.642;2022-08-01T03:39:55;49.55;;;19.90;;
23181;SDS011;11759;51.282;6.642;2022-08-01T03:42:28;59.28;;;20.25;;
23181;SDS011;11759;51.282;6.642;2022-08-01T03:45:02;44.88;;;20.75;;
23181;SDS011;11759;51.282;6.642;2022-08-01T03:47:31;59.92;;;22.60;;
23181;SDS011;11759;51.282;6.642;2022-08-01T03:50:07;56.28;;;22.58;;
23181;SDS011;11759;51.282;6.642;2022-08-01T03:52:38;55.97;;;23.70;;
23181;SDS011;11759;51.282;6.642;2022-08-01T03:55:06;62.47;;;25.10;;
23181;SDS011;11759;51.282;6.642;2022-08-01T03:57:33;66.18;;;24.30;;
23181;SDS011;11759;51.282;6.642;2022-08-01T04:00:03;64.20;;;24.85;;
23181;SDS011;11759;51.282;6.642;2022-08-01T04:02:38;59.83;;;25.48;;
23181;SDS011;11759;51.282;6.642;2022-08-01T04:05:05;60.28;;;24.35;;
23181;SDS011;11759;51.282;6.642;2022-08-01T04:07:33;62.60;;;24.80;;
23181;SDS011;11759;51.282;6.642;2022-08-01T04:10:05;69.88;;;27.27;;
23181;SDS011;11759;51.282;6.642;2022-08-01T04:12:32;69.95;;;26.90;;
23181;SDS011;11759;51.282;6.642;2022-08-01T04:15:00;70.53;;;27.75;;
23181;SDS011;11759;51.282;6.642;2022-08-01T04:17:27;74.55;;;28.80;;
23181;SDS011;11759;51.282;6.642;2022-08-01T04:19:53;66.43;;;27.65;;
23181;SDS011;11759;51.282;6.642;2022-08-01T04:22:20;74.60;;;28.42;;
23181;SDS011;11759;51.282;6.642;2022-08-01T04:24:47;71.60;;;28.30;;
23181;SDS011;11759;51.282;6.642;2022-08-01T04:27:23;71.65;;;28.73;;
23181;SDS011;11759;51.282;6.642;2022-08-01T04:30:15;73.35;;;29.67;;
23181;SDS011;11759;51.282;6.642;2022-08-01T04:35:13;68.95;;;28.63;;
23181;SDS011;11759;51.282;6.642;2022-08-01T04:38:05;72.13;;;29.95;;
23181;SDS011;11759;51.282;6.642;2022-08-01T04:40:31;68.32;;;28.17;;
23181;SDS011;11759;51.282;6.642;2022-08-01T04:42:58;73.05;;;31.27;;
23181;SDS011;11759;51.282;6.642;2022-08-01T04:45:25;66.32;;;28.75;;
23181;SDS011;11759;51.282;6.642;2022-08-01T04:47:52;73.68;;;28.67;;
23181;SDS011;11759;51.282;6.642;2022-08-01T04:50:19;69.13;;;29.70;;
23181;SDS011;11759;51.282;6.642;2022-08-01T04:52:48;74.03;;;30.02;;
23181;SDS011;11759;51.282;6.642;2022-08-01T04:55:14;76.93;;;31.05;;
23181;SDS011;11759;51.282;6.642;2022-08-01T04:57:44;74.90;;;29.27;;
23181;SDS011;11759;51.282;6.642;2022-08-01T05:00:11;69.53;;;28.85;;
23181;SDS011;11759;51.282;6.642;2022-08-01T05:02:38;65.38;;;29.55;;
23181;SDS011;11759;51.282;6.642;2022-08-01T05:05:05;59.10;;;28.02;;
23181;SDS011;11759;51.282;6.642;2022-08-01T05:07:32;68.95;;;29.27;;
23181;SDS011;11759;51.282;6.642;2022-08-01T05:10:11;72.45;;;27.95;;
23181;SDS011;11759;51.282;6.642;2022-08-01T05:12:38;60.20;;;27.02;;
23181;SDS011;11759;51.282;6.642;2022-08-01T05:15:05;61.72;;;29.00;;
23181;SDS011;11759;51.282;6.642;2022-08-01T05:17:40;65.53;;;28.33;;
23181;SDS011;11759;51.282;6.642;2022-08-01T05:20:08;57.35;;;25.60;;
23181;SDS011;11759;51.282;6.642;2022-08-01T05:22:36;62.45;;;28.17;;
23181;SDS011;11759;51.282;6.642;2022-08-01T05:25:03;63.40;;;29.27;;
23181;SDS011;11759;51.282;6.642;2022-08-01T05:27:31;65.65;;;29.25;;
23181;SDS011;11759;51.282;6.642;2022-08-01T05:29:59;61.67;;;28.67;;
23181;SDS011;11759;51.282;6.642;2022-08-01T05:32:26;56.60;;;27.98;;
23181;SDS011;11759;51.282;6.642;2022-08-01T05:34:53;58.15;;;27.17;;
23181;SDS011;11759;51.282;6.642;2022-08-01T05:37:20;65.70;;;29.30;;
23181;SDS011;11759;51.282;6.642;2022-08-01T05:39:46;61.88;;;28.20;;
23181;SDS011;11759;51.282;6.642;2022-08-01T05:42:13;56.88;;;27.42;;
23181;SDS011;11759;51.282;6.642;2022-08-01T05:44:39;66.75;;;26.90;;
23181;SDS011;11759;51.282;6.642;2022-08-01T05:47:06;61.97;;;27.20;;
23181;SDS011;11759;51.282;6.642;2022-08-01T05:49:33;54.65;;;25.35;;
23181;SDS011;11759;51.282;6.642;2022-08-01T05:52:00;59.85;;;26.20;;
23181;SDS011;11759;51.282;6.642;2022-08-01T05:54:28;47.28;;;24.13;;
23181;SDS011;11759;51.282;6.642;2022-08-01T05:56:55;46.38;;;23.95;;
23181;SDS011;11759;51.282;6.642;2022-08-01T05:59:25;53.90;;;24.20;;
23181;SDS011;11759;51.282;6.642;2022-08-01T06:01:52;47.50;;;24.17;;
23181;SDS011;11759;51.282;6.642;2022-08-01T06:04:19;45.92;;;23.77;;
23181;SDS011;11759;51.282;6.642;2022-08-01T06:06:45;39.35;;;22.10;;
23181;SDS011;11759;51.282;6.642;2022-08-01T06:09:12;45.58;;;23.30;;
23181;SDS011;11759;51.282;6.642;2022-08-01T06:11:39;42.58;;;23.13;;
23181;SDS011;11759;51.282;6.642;2022-08-01T06:14:05;45.38;;;22.67;;
23181;SDS011;11759;51.282;6.642;2022-08-01T06:16:32;40.00;;;21.85;;
23181;SDS011;11759;51.282;6.642;2022-08-01T06:18:59;35.40;;;20.85;;
23181;SDS011;11759;51.282;6.642;2022-08-01T06:21:25;39.40;;;21.38;;
23181;SDS011;11759;51.282;6.642;2022-08-01T06:23:52;37.97;;;21.63;;
23181;SDS011;11759;51.282;6.642;2022-08-01T06:26:19;37.35;;;19.88;;
23181;SDS011;11759;51.282;6.642;2022-08-01T06:28:46;35.83;;;20.70;;
23181;SDS011;11759;51.282;6.642;2022-08-01T06:31:12;34.45;;;20.67;;
23181;SDS011;11759;51.282;6.642;2022-08-01T06:33:40;36.20;;;21.20;;
23181;SDS011;11759;51.282;6.642;2022-08-01T06:36:07;35.30;;;21.35;;
23181;SDS011;11759;51.282;6.642;2022-08-01T06:38:35;35.95;;;22.40;;
23181;SDS011;11759;51.282;6.642;2022-08-01T06:41:01;38.90;;;20.52;;
23181;SDS011;11759;51.282;6.642;2022-08-01T06:43:28;44.67;;;21.83;;
23181;SDS011;11759;51.282;6.642;2022-08-01T06:45:55;36.42;;;22.08;;
23181;SDS011;11759;51.282;6.642;2022-08-01T06:48:21;35.42;;;21.80;;
23181;SDS011;11759;51.282;6.642;2022-08-01T06:50:49;34.80;;;20.27;;
23181;SDS011;11759;51.282;6.642;2022-08-01T06:53:36;30.55;;;17.40;;
23181;SDS011;11759;51.282;6.642;2022-08-01T06:56:07;36.22;;;19.02;;
23181;SDS011;11759;51.282;6.642;2022-08-01T06:58:35;28.85;;;17.13;;
23181;SDS011;11759;51.282;6.642;2022-08-01T07:01:04;31.08;;;17.00;;
23181;SDS011;11759;51.282;6.642;2022-08-01T07:03:33;32.25;;;17.13;;
23181;SDS011;11759;51.282;6.642;2022-08-01T07:06:23;27.63;;;16.85;;
23181;SDS011;11759;51.282;6.642;2022-08-01T07:08:50;23.42;;;15.23;;
23181;SDS011;11759;51.282;6.642;2022-08-01T07:11:18;24.30;;;15.32;;
23181;SDS011;11759;51.282;6.642;2022-08-01T07:13:45;26.65;;;15.32;;
23181;SDS011;11759;51.282;6.642;2022-08-01T07:16:12;21.02;;;13.93;;
23181;SDS011;11759;51.282;6.642;2022-08-01T07:18:40;21.30;;;12.13;;
23181;SDS011;11759;51.282;6.642;2022-08-01T07:21:07;16.05;;;11.25;;
23181;SDS011;11759;51.282;6.642;2022-08-01T07:23:54;16.58;;;11.02;;
23181;SDS011;11759;51.282;6.642;2022-08-01T07:26:21;17.10;;;10.88;;
23181;SDS011;11759;51.282;6.642;2022-08-01T07:28:48;18.73;;;9.45;;
23181;SDS011;11759;51.282;6.642;2022-08-01T07:31:15;11.30;;;8.63;;
23181;SDS011;11759;51.282;6.642;2022-08-01T07:33:41;10.50;;;7.25;;
23181;SDS011;11759;51.282;6.642;2022-08-01T07:36:17;10.65;;;6.90;;
23181;SDS011;11759;51.282;6.642;2022-08-01T07:38:45;11.50;;;7.07;;
23181;SDS011;11759;51.282;6.642;2022-08-01T07:41:12;13.32;;;7.38;;
23181;SDS011;11759;51.282;6.642;2022-08-01T07:43:38;13.25;;;7.07;;
23181;SDS011;11759;51.282;6.642;2022-08-01T07:46:05;9.85;;;6.50;;
23181;SDS011;11759;51.282;6.642;2022-08-01T07:48:32;11.95;;;6.55;;
23181;SDS011;11759;51.282;6.642;2022-08-01T07:50:59;11.27;;;5.70;;
23181;SDS011;11759;51.282;6.642;2022-08-01T07:53:25;11.75;;;7.03;;
23181;SDS011;11759;51.282;6.642;2022-08-01T07:55:52;13.05;;;7.03;;
23181;SDS011;11759;51.282;6.642;2022-08-01T07:58:19;7.93;;;4.80;;
23181;SDS011;11759;51.282;6.642;2022-08-01T08:00:46;7.95;;;5.85;;
23181;SDS011;11759;51.282;6.642;2022-08-01T08:03:13;7.82;;;4.72;;
23181;SDS011;11759;51.282;6.642;2022-08-01T08:05:39;9.48;;;5.07;;
23181;SDS011;11759;51.282;6.642;2022-08-01T08:08:25;7.15;;;4.05;;
23181;SDS011;11759;51.282;6.642;2022-08-01T08:10:52;6.13;;;3.92;;
23181;SDS011;11759;51.282;6.642;2022-08-01T08:13:18;6.47;;;3.83;;
23181;SDS011;11759;51.282;6.642;2022-08-01T08:15:46;6.68;;;4.47;;
23181;SDS011;11759;51.282;6.642;2022-08-01T08:18:14;7.80;;;4.65;;
23181;SDS011;11759;51.282;6.642;2022-08-01T08:20:41;6.45;;;4.57;;
23181;SDS011;11759;51.282;6.642;2022-08-01T08:23:07;7.00;;;4.78;;
23181;SDS011;11759;51.282;6.642;2022-08-01T08:26:09;10.27;;;6.15;;
23181;SDS011;11759;51.282;6.642;2022-08-01T08:28:36;11.55;;;5.70;;
23181;SDS011;11759;51.282;6.642;2022-08-01T08:31:05;9.75;;;5.50;;
23181;SDS011;11759;51.282;6.642;2022-08-01T08:33:32;12.20;;;6.18;;
23181;SDS011;11759;51.282;6.642;2022-08-01T08:35:59;10.13;;;6.43;;
23181;SDS011;11759;51.282;6.642;2022-08-01T08:38:26;8.27;;;5.53;;
23181;SDS011;11759;51.282;6.642;2022-08-01T08:40:55;9.82;;;6.65;;
23181;SDS011;11759;51.282;6.642;2022-08-01T08:43:24;10.57;;;5.82;;
23181;SDS011;11759;51.282;6.642;2022-08-01T08:45:52;8.00;;;5.45;;
23181;SDS011;11759;51.282;6.642;2022-08-01T08:48:25;9.95;;;6.35;;
23181;SDS011;11759;51.282;6.642;2022-08-01T08:50:53;8.82;;;5.88;;
23181;SDS011;11759;51.282;6.642;2022-08-01T08:53:20;10.07;;;5.55;;
23181;SDS011;11759;51.282;6.642;2022-08-01T08:55:47;7.47;;;4.65;;
23181;SDS011;11759;51.282;6.642;2022-08-01T08:58:21;6.80;;;4.47;;
23181;SDS011;11759;51.282;6.642;2022-08-01T09:00:56;8.75;;;4.88;;
23181;SDS011;11759;51.282;6.642;2022-08-01T09:03:23;7.72;;;4.47;;
23181;SDS011;11759;51.282;6.642;2022-08-01T09:05:50;5.53;;;4.10;;
23181;SDS011;11759;51.282;6.642;2022-08-01T09:08:16;6.68;;;4.30;;
23181;SDS011;11759;51.282;6.642;2022-08-01T09:10:43;7.35;;;4.85;;
23181;SDS011;11759;51.282;6.642;2022-08-01T09:13:13;7.90;;;5.00;;
23181;SDS011;11759;51.282;6.642;2022-08-01T09:15:47;6.30;;;4.25;;
23181;SDS011;11759;51.282;6.642;2022-08-01T09:23:33;6.40;;;4.38;;
23181;SDS011;11759;51.282;6.642;2022-08-01T09:26:01;7.53;;;4.75;;
23181;SDS011;11759;51.282;6.642;2022-08-01T09:28:28;5.93;;;4.10;;
23181;SDS011;11759;51.282;6.642;2022-08-01T09:30:56;6.93;;;4.25;;
23181;SDS011;11759;51.282;6.642;2022-08-01T09:33:23;6.50;;;4.22;;
23181;SDS011;11759;51.282;6.642;2022-08-01T09:35:56;7.80;;;4.38;;
23181;SDS011;11759;51.282;6.642;2022-08-01T09:38:24;7.10;;;5.18;;
23181;SDS011;11759;51.282;6.642;2022-08-01T09:43:25;6.43;;;4.00;;
23181;SDS011;11759;51.282;6.642;2022-08-01T09:45:53;6.25;;;3.90;;
23181;SDS011;11759;51.282;6.642;2022-08-01T09:48:23;4.95;;;3.70;;
23181;SDS011;11759;51.282;6.642;2022-08-01T09:50:55;3.40;;;2.80;;
23181;SDS011;11759;51.282;6.642;2022-08-01T09:53:45;4.10;;;2.80;;
23181;SDS011;11759;51.282;6.642;2022-08-01T09:56:18;6.30;;;2.58;;
23181;SDS011;11759;51.282;6.642;2022-08-01T09:58:53;4.22;;;2.90;;
23181;SDS011;11759;51.282;6.642;2022-08-01T10:01:26;3.45;;;2.80;;
23181;SDS011;11759;51.282;6.642;2022-08-01T10:04:04;6.05;;;2.65;;
23181;SDS011;11759;51.282;6.642;2022-08-01T10:06:43;3.97;;;2.47;;
23181;SDS011;11759;51.282;6.642;2022-08-01T10:09:12;4.72;;;2.50;;
23181;SDS011;11759;51.282;6.642;2022-08-01T10:11:40;3.17;;;2.15;;
23181;SDS011;11759;51.282;6.642;2022-08-01T10:14:10;3.88;;;2.40;;
23181;SDS011;11759;51.282;6.642;2022-08-01T10:16:43;3.58;;;2.10;;
23181;SDS011;11759;51.282;6.642;2022-08-01T10:19:20;9.02;;;2.00;;
23181;SDS011;11759;51.282;6.642;2022-08-01T10:21:49;1.80;;;1.40;;
23181;SDS011;11759;51.282;6.642;2022-08-01T10:24:25;6.47;;;1.67;;
23181;SDS011;11759;51.282;6.642;2022-08-01T10:27:03;4.20;;;2.30;;
23181;SDS011;11759;51.282;6.642;2022-08-01T10:32:25;2.42;;;2.00;;
23181;SDS011;11759;51.282;6.642;2022-08-01T10:34:54;3.13;;;1.65;;
23181;SDS011;11759;51.282;6.642;2022-08-01T10:37:21;2.38;;;1.60;;
23181;SDS011;11759;51.282;6.642;2022-08-01T10:39:47;3.13;;;1.90;;
23181;SDS011;11759;51.282;6.642;2022-08-01T10:42:14;3.38;;;1.70;;
23181;SDS011;11759;51.282;6.642;2022-08-01T10:44:41;2.25;;;1.70;;
23181;SDS011;11759;51.282;6.642;2022-08-01T10:47:10;2.85;;;1.70;;
23181;SDS011;11759;51.282;6.642;2022-08-01T10:49:47;2.85;;;2.10;;
23181;SDS011;11759;51.282;6.642;2022-08-01T10:52:18;2.42;;;1.70;;
23181;SDS011;11759;51.282;6.642;2022-08-01T10:54:47;2.75;;;1.60;;
23181;SDS011;11759;51.282;6.642;2022-08-01T10:57:18;7.05;;;1.98;;
23181;SDS011;11759;51.282;6.642;2022-08-01T10:59:49;2.07;;;1.87;;
23181;SDS011;11759;51.282;6.642;2022-08-01T11:02:30;2.65;;;1.92;;
23181;SDS011;11759;51.282;6.642;2022-08-01T11:05:02;4.00;;;1.70;;
23181;SDS011;11759;51.282;6.642;2022-08-01T11:07:36;2.45;;;1.42;;
23181;SDS011;11759;51.282;6.642;2022-08-01T11:10:21;2.45;;;1.40;;
23181;SDS011;11759;51.282;6.642;2022-08-01T11:12:51;2.20;;;1.60;;
23181;SDS011;11759;51.282;6.642;2022-08-01T11:15:19;2.83;;;1.42;;
23181;SDS011;11759;51.282;6.642;2022-08-01T11:17:56;2.83;;;2.00;;
23181;SDS011;11759;51.282;6.642;2022-08-01T11:20:26;2.20;;;1.90;;
23181;SDS011;11759;51.282;6.642;2022-08-01T11:28:24;1.52;;;1.40;;
23181;SDS011;11759;51.282;6.642;2022-08-01T11:41:09;1.38;;;1.23;;
23181;SDS011;11759;51.282;6.642;2022-08-01T11:52:11;1.20;;;1.10;;
23181;SDS011;11759;51.282;6.642;2022-08-01T11:54:55;1.88;;;1.10;;
23181;SDS011;11759;51.282;6.642;2022-08-01T11:57:24;1.15;;;1.00;;
23181;SDS011;11759;51.282;6.642;2022-08-01T12:00:00;2.00;;;1.33;;
23181;SDS011;11759;51.282;6.642;2022-08-01T12:02:39;1.73;;;1.30;;
23181;SDS011;11759;51.282;6.642;2022-08-01T12:05:08;7.15;;;1.58;;
23181;SDS011;11759;51.282;6.642;2022-08-01T12:07:40;1.85;;;1.52;;
23181;SDS011;11759;51.282;6.642;2022-08-01T12:10:14;1.67;;;1.40;;
23181;SDS011;11759;51.282;6.642;2022-08-01T12:12:43;2.40;;;1.70;;
23181;SDS011;11759;51.282;6.642;2022-08-01T12:15:12;2.00;;;1.70;;
23181;SDS011;11759;51.282;6.642;2022-08-01T12:17:44;7.88;;;1.70;;
23181;SDS011;11759;51.282;6.642;2022-08-01T12:20:25;2.85;;;1.65;;
23181;SDS011;11759;51.282;6.642;2022-08-01T12:22:56;2.42;;;2.03;;
23181;SDS011;11759;51.282;6.642;2022-08-01T12:25:24;1.85;;;1.40;;
23181;SDS011;11759;51.282;6.642;2022-08-01T12:27:52;3.05;;;1.90;;
23181;SDS011;11759;51.282;6.642;2022-08-01T12:30:23;1.92;;;1.60;;
23181;SDS011;11759;51.282;6.642;2022-08-01T12:32:53;4.10;;;1.88;;
23181;SDS011;11759;51.282;6.642;2022-08-01T12:35:21;2.20;;;1.70;;
23181;SDS011;11759;51.282;6.642;2022-08-01T12:37:53;2.65;;;1.80;;
23181;SDS011;11759;51.282;6.642;2022-08-01T12:40:26;3.30;;;1.63;;
23181;SDS011;11759;51.282;6.642;2022-08-01T12:42:57;1.90;;;1.70;;
23181;SDS011;11759;51.282;6.642;2022-08-01T12:45:26;2.92;;;2.20;;
23181;SDS011;11759;51.282;6.642;2022-08-01T12:47:54;2.70;;;1.70;;
23181;SDS011;11759;51.282;6.642;2022-08-01T12:50:22;3.13;;;2.22;;
23181;SDS011;11759;51.282;6.642;2022-08-01T12:52:50;3.53;;;2.10;;
23181;SDS011;11759;51.282;6.642;2022-08-01T12:55:18;4.45;;;1.80;;
23181;SDS011;11759;51.282;6.642;2022-08-01T12:57:50;3.38;;;1.70;;
23181;SDS011;11759;51.282;6.642;2022-08-01T13:00:29;3.13;;;1.67;;
23181;SDS011;11759;51.282;6.642;2022-08-01T13:03:03;2.08;;;1.50;;
23181;SDS011;11759;51.282;6.642;2022-08-01T13:08:12;2.22;;;1.55;;
23181;SDS011;11759;51.282;6.642;2022-08-01T13:10:40;1.70;;;1.33;;
23181;SDS011;11759;51.282;6.642;2022-08-01T13:13:07;3.20;;;1.65;;
23181;SDS011;11759;51.282;6.642;2022-08-01T13:15:36;3.40;;;1.60;;
23181;SDS011;11759;51.282;6.642;2022-08-01T13:21:12;2.28;;;1.20;;
23181;SDS011;11759;51.282;6.642;2022-08-01T13:24:03;1.67;;;1.40;;
23181;SDS011;11759;51.282;6.642;2022-08-01T13:26:47;2.50;;;1.60;;
23181;SDS011;11759;51.282;6.642;2022-08-01T13:29:18;4.85;;;1.90;;
23181;SDS011;11759;51.282;6.642;2022-08-01T13:31:46;2.00;;;1.65;;
23181;SDS011;11759;51.282;6.642;2022-08-01T13:34:14;1.55;;;1.35;;
23181;SDS011;11759;51.282;6.642;2022-08-01T13:36:41;3.55;;;1.55;;
23181;SDS011;11759;51.282;6.642;2022-08-01T13:39:14;3.42;;;1.40;;
23181;SDS011;11759;51.282;6.642;2022-08-01T13:41:59;2.05;;;1.48;;
23181;SDS011;11759;51.282;6.642;2022-08-01T13:44:26;2.45;;;1.60;;
23181;SDS011;11759;51.282;6.642;2022-08-01T13:46:53;1.42;;;1.23;;
23181;SDS011;11759;51.282;6.642;2022-08-01T13:49:20;2.17;;;1.30;;
23181;SDS011;11759;51.282;6.642;2022-08-01T13:51:48;2.28;;;1.52;;
23181;SDS011;11759;51.282;6.642;2022-08-01T13:54:16;2.38;;;1.20;;
23181;SDS011;11759;51.282;6.642;2022-08-01T13:56:44;4.03;;;1.58;;
23181;SDS011;11759;51.282;6.642;2022-08-01T13:59:10;1.50;;;1.30;;
23181;SDS011;11759;51.282;6.642;2022-08-01T14:01:37;3.55;;;1.50;;
23181;SDS011;11759;51.282;6.642;2022-08-01T14:04:04;1.45;;;1.20;;
23181;SDS011;11759;51.282;6.642;2022-08-01T14:06:31;1.70;;;1.30;;
23181;SDS011;11759;51.282;6.642;2022-08-01T14:08:58;2.80;;;1.27;;
23181;SDS011;11759;51.282;6.642;2022-08-01T14:11:26;2.85;;;1.42;;
23181;SDS011;11759;51.282;6.642;2022-08-01T14:14:02;3.17;;;1.50;;
23181;SDS011;11759;51.282;6.642;2022-08-01T14:16:29;2.05;;;1.17;;
23181;SDS011;11759;51.282;6.642;2022-08-01T14:18:56;5.57;;;1.42;;
23181;SDS011;11759;51.282;6.642;2022-08-01T14:21:23;2.00;;;1.20;;
23181;SDS011;11759;51.282;6.642;2022-08-01T14:23:49;3.97;;;1.25;;
23181;SDS011;11759;51.282;6.642;2022-08-01T14:26:16;3.90;;;1.60;;
23181;SDS011;11759;51.282;6.642;2022-08-01T14:28:43;5.05;;;1.50;;
23181;SDS011;11759;51.282;6.642;2022-08-01T14:31:09;3.65;;;1.30;;
23181;SDS011;11759;51.282;6.642;2022-08-01T14:33:36;2.58;;;1.50;;
23181;SDS011;11759;51.282;6.642;2022-08-01T14:36:03;3.53;;;1.67;;
23181;SDS011;11759;51.282;6.642;2022-08-01T14:38:50;4.22;;;1.30;;
23181;SDS011;11759;51.282;6.642;2022-08-01T14:41:16;4.25;;;1.45;;
23181;SDS011;11759;51.282;6.642;2022-08-01T14:43:43;3.20;;;1.50;;
23181;SDS011;11759;51.282;6.642;2022-08-01T14:46:10;3.08;;;1.60;;
23181;SDS011;11759;51.282;6.642;2022-08-01T14:48:38;2.53;;;1.27;;
23181;SDS011;11759;51.282;6.642;2022-08-01T14:51:05;2.92;;;1.40;;
23181;SDS011;11759;51.282;6.642;2022-08-01T14:53:33;4.85;;;1.50;;
23181;SDS011;11759;51.282;6.642;2022-08-01T14:56:04;4.97;;;1.55;;
23181;SDS011;11759;51.282;6.642;2022-08-01T14:58:32;3.70;;;1.50;;
23181;SDS011;11759;51.282;6.642;2022-08-01T15:00:59;2.60;;;1.25;;
23181;SDS011;11759;51.282;6.642;2022-08-01T15:03:26;2.40;;;1.42;;
23181;SDS011;11759;51.282;6.642;2022-08-01T15:05:53;2.58;;;1.17;;
23181;SDS011;11759;51.282;6.642;2022-08-01T15:08:19;3.80;;;1.60;;
23181;SDS011;11759;51.282;6.642;2022-08-01T15:10:46;2.55;;;1.30;;
23181;SDS011;11759;51.282;6.642;2022-08-01T15:13:13;2.47;;;1.50;;
23181;SDS011;11759;51.282;6.642;2022-08-01T15:15:39;3.38;;;1.40;;
23181;SDS011;11759;51.282;6.642;2022-08-01T15:18:06;3.35;;;1.67;;
23181;SDS011;11759;51.282;6.642;2022-08-01T15:20:32;3.13;;;1.52;;
23181;SDS011;11759;51.282;6.642;2022-08-01T15:22:59;1.85;;;1.17;;
23181;SDS011;11759;51.282;6.642;2022-08-01T15:25:26;2.95;;;1.42;;
23181;SDS011;11759;51.282;6.642;2022-08-01T15:28:07;2.25;;;1.38;;
23181;SDS011;11759;51.282;6.642;2022-08-01T15:30:37;2.97;;;1.42;;
23181;SDS011;11759;51.282;6.642;2022-08-01T15:33:03;3.35;;;1.60;;
23181;SDS011;11759;51.282;6.642;2022-08-01T15:35:31;3.08;;;1.83;;
23181;SDS011;11759;51.282;6.642;2022-08-01T15:37:57;2.05;;;1.40;;
23181;SDS011;11759;51.282;6.642;2022-08-01T15:40:24;3.33;;;1.50;;
23181;SDS011;11759;51.282;6.642;2022-08-01T15:42:51;1.90;;;1.20;;
23181;SDS011;11759;51.282;6.642;2022-08-01T15:45:18;3.85;;;1.50;;